| time (UTC) | temp F | wind direction | speed MPH | gust MPH | rain 1hr in | rain 24hr in | rain mn in | humidity % | barometer mb |
| 20260507145756 | 55 | 44 | 0.0 | 0.0 | 0.01 | 0.58 | 0.32 | 99 | 1010.3 |
| 20260507145256 | 56 | 34 | 0.0 | 0.0 | 0.01 | 0.58 | 0.32 | 99 | 1010.3 |
| 20260507143256 | 56 | 55 | 2.0 | 5.0 | 0.01 | 0.58 | 0.32 | 100 | 1010.0 |
| 20260507142756 | 55 | 19 | 3.0 | 5.0 | 0.01 | 0.58 | 0.32 | 100 | 1010.2 |
| 20260507141756 | 56 | 30 | 0.0 | 0.0 | 0.01 | 0.58 | 0.32 | 100 | 1010.2 |
| 20260507141256 | 56 | 66 | 0.0 | 0.0 | 0.01 | 0.58 | 0.32 | 100 | 1010.1 |
| 20260507140756 | 56 | 60 | 0.0 | 6.0 | 0.01 | 0.59 | 0.32 | 100 | 1010.0 |
| 20260507140256 | 56 | 44 | 2.0 | 6.0 | 0.01 | 0.62 | 0.32 | 100 | 1010.0 |
| 20260507135756 | 56 | 65 | 1.0 | 6.0 | 0.00 | 0.61 | 0.31 | 100 | 1009.8 |
| 20260507135256 | 56 | 39 | 0.0 | 0.0 | 0.00 | 0.61 | 0.31 | 100 | 1010.1 |
| 20260507134256 | 55 | 53 | 0.0 | 0.0 | 0.00 | 0.61 | 0.31 | 100 | 1010.2 |
| 20260507133757 | 55 | 65 | 0.0 | 0.0 | 0.00 | 0.62 | 0.31 | 100 | 1010.2 |
| 20260507132256 | 56 | 49 | 1.0 | 7.0 | 0.00 | 0.62 | 0.31 | 100 | 1009.8 |
| 20260507131756 | 56 | 50 | 3.0 | 6.0 | 0.00 | 0.62 | 0.31 | 100 | 1009.6 |
| 20260507131257 | 56 | 46 | 4.0 | 7.0 | 0.00 | 0.62 | 0.31 | 100 | 1009.8 |
| 20260507130756 | 56 | 23 | 1.0 | 7.0 | 0.00 | 0.62 | 0.31 | 100 | 1009.7 |
| 20260507130257 | 56 | 41 | 3.0 | 8.0 | 0.00 | 0.62 | 0.31 | 100 | 1009.7 |
| 20260507125756 | 56 | 55 | 2.0 | 6.0 | 0.01 | 0.62 | 0.31 | 100 | 1010.0 |
| 20260507125257 | 56 | 61 | 0.0 | 0.0 | 0.01 | 0.62 | 0.31 | 100 | 1009.6 |
| 20260507124757 | 56 | 69 | 0.0 | 0.0 | 0.02 | 0.62 | 0.31 | 100 | 1009.6 |
| 20260507124256 | 56 | 74 | 1.0 | 5.0 | 0.03 | 0.62 | 0.31 | 100 | 1009.6 |
| 20260507123756 | 56 | 74 | 5.0 | 6.0 | 0.03 | 0.62 | 0.31 | 100 | 1009.6 |
| 20260507123256 | 56 | 86 | 2.0 | 5.0 | 0.03 | 0.62 | 0.31 | 100 | 1009.9 |
| 20260507122756 | 56 | 74 | 3.0 | 5.0 | 0.04 | 0.62 | 0.31 | 100 | 1009.7 |
| 20260507122256 | 56 | 76 | 4.0 | 6.0 | 0.05 | 0.62 | 0.31 | 100 | 1009.6 |
| 20260507121757 | 56 | 80 | 4.0 | 6.0 | 0.05 | 0.62 | 0.31 | 100 | 1009.2 |
| 20260507121256 | 56 | 77 | 5.0 | 7.0 | 0.06 | 0.62 | 0.31 | 100 | 1009.0 |
| 20260507120256 | 56 | 80 | 0.0 | 0.0 | 0.10 | 0.62 | 0.31 | 100 | 1009.3 |
| 20260507115756 | 56 | 82 | 0.0 | 0.0 | 0.09 | 0.61 | 0.30 | 100 | 1009.5 |
| 20260507114756 | 56 | 78 | 3.0 | 3.0 | 0.08 | 0.60 | 0.29 | 100 | 1009.5 |
| 20260507114256 | 56 | 67 | 3.0 | 6.0 | 0.07 | 0.59 | 0.28 | 100 | 1009.9 |
| 20260507113256 | 57 | 66 | 3.0 | 6.0 | 0.07 | 0.59 | 0.28 | 100 | 1009.8 |
| 20260507112256 | 57 | 68 | 6.0 | 8.0 | 0.05 | 0.57 | 0.26 | 100 | 1009.4 |
| 20260507111756 | 57 | 9 | 0.0 | 0.0 | 0.05 | 0.57 | 0.26 | 100 | 1009.5 |
| 20260507111256 | 58 | 12 | 0.0 | 0.0 | 0.05 | 0.56 | 0.25 | 100 | 1009.5 |
| 20260507110756 | 58 | 238 | 0.0 | 0.0 | 0.04 | 0.55 | 0.24 | 100 | 1009.4 |
| 20260507110256 | 58 | 238 | 0.0 | 6.0 | 0.02 | 0.52 | 0.21 | 100 | 1009.4 |
| 20260507105757 | 58 | 273 | 0.0 | 0.0 | 0.02 | 0.52 | 0.21 | 100 | 1009.4 |
| 20260507105257 | 58 | 273 | 2.0 | 5.0 | 0.03 | 0.52 | 0.21 | 100 | 1009.2 |
| 20260507104757 | 58 | 273 | 1.0 | 3.0 | 0.03 | 0.52 | 0.21 | 100 | 1008.9 |
| 20260507103756 | 58 | 255 | 0.0 | 0.0 | 0.06 | 0.52 | 0.21 | 100 | 1008.7 |
| 20260507102756 | 58 | 276 | 0.0 | 0.0 | 0.06 | 0.52 | 0.21 | 100 | 1008.4 |
| 20260507102256 | 58 | 279 | 0.0 | 0.0 | 0.06 | 0.52 | 0.21 | 100 | 1008.3 |
| 20260507101256 | 59 | 279 | 0.0 | 0.0 | 0.07 | 0.51 | 0.20 | 100 | 1008.3 |
| 20260507100256 | 59 | 279 | 0.0 | 0.0 | 0.09 | 0.50 | 0.19 | 100 | 1008.3 |
| 20260507095756 | 59 | 279 | 0.0 | 0.0 | 0.10 | 0.50 | 0.19 | 100 | 1008.4 |
| 20260507095257 | 59 | 279 | 0.0 | 0.0 | 0.09 | 0.49 | 0.18 | 100 | 1008.6 |
| 20260507094757 | 59 | 276 | 0.0 | 0.0 | 0.09 | 0.49 | 0.18 | 100 | 1008.4 |
| 20260507094256 | 59 | 250 | 0.0 | 0.0 | 0.07 | 0.47 | 0.16 | 100 | 1008.3 |
| 20260507093756 | 59 | 252 | 0.0 | 0.0 | 0.06 | 0.46 | 0.15 | 100 | 1008.2 |
| 20260507093256 | 60 | 229 | 0.0 | 0.0 | 0.07 | 0.46 | 0.15 | 100 | 1008.1 |
| 20260507092757 | 60 | 229 | 0.0 | 0.0 | 0.07 | 0.46 | 0.15 | 100 | 1007.9 |
| 20260507091756 | 60 | 229 | 0.0 | 0.0 | 0.07 | 0.46 | 0.15 | 100 | 1007.7 |
| 20260507090757 | 61 | 0 | 0.0 | 0.0 | 0.04 | 0.43 | 0.12 | 100 | 1008.0 |
| 20260507090257 | 61 | 0 | 0.0 | 0.0 | 0.02 | 0.41 | 0.10 | 100 | 1007.7 |
| 20260507085256 | 62 | 291 | 0.0 | 0.0 | 0.01 | 0.40 | 0.09 | 100 | 1008.0 |
| 20260507084756 | 62 | 291 | 0.0 | 0.0 | 0.01 | 0.40 | 0.09 | 100 | 1007.9 |
| 20260507084256 | 62 | 248 | 0.0 | 0.0 | 0.01 | 0.40 | 0.09 | 100 | 1008.0 |
| 20260507083757 | 62 | 207 | 0.0 | 0.0 | 0.01 | 0.40 | 0.09 | 100 | 1007.7 |
| 20260507083257 | 62 | 207 | 0.0 | 0.0 | 0.00 | 0.39 | 0.08 | 100 | 1007.7 |
| 20260507082756 | 62 | 207 | 0.0 | 0.0 | 0.03 | 0.39 | 0.08 | 100 | 1007.8 |
| 20260507082257 | 62 | 207 | 0.0 | 0.0 | 0.05 | 0.39 | 0.08 | 100 | 1007.7 |
| 20260507081757 | 62 | 207 | 0.0 | 0.0 | 0.05 | 0.39 | 0.08 | 100 | 1007.6 |
| 20260507081256 | 62 | 207 | 0.0 | 0.0 | 0.05 | 0.39 | 0.08 | 100 | 1007.6 |
| 20260507080756 | 62 | 207 | 0.0 | 0.0 | 0.05 | 0.39 | 0.08 | 100 | 1007.6 |
| 20260507075757 | 62 | 207 | 0.0 | 0.0 | 0.05 | 0.39 | 0.08 | 100 | 1007.7 |
| 20260507075257 | 62 | 207 | 0.0 | 0.0 | 0.05 | 0.39 | 0.08 | 100 | 1007.7 |
| 20260507074757 | 62 | 207 | 0.0 | 0.0 | 0.05 | 0.39 | 0.08 | 100 | 1008.2 |
| 20260507074256 | 62 | 207 | 0.0 | 0.0 | 0.05 | 0.39 | 0.08 | 100 | 1008.4 |
| 20260507073756 | 62 | 207 | 0.0 | 0.0 | 0.05 | 0.39 | 0.08 | 100 | 1008.2 |
| 20260507073256 | 62 | 207 | 0.0 | 0.0 | 0.06 | 0.39 | 0.08 | 100 | 1008.1 |
| 20260507072757 | 62 | 207 | 0.0 | 0.0 | 0.03 | 0.36 | 0.05 | 100 | 1008.0 |
| 20260507072257 | 62 | 207 | 0.0 | 0.0 | 0.01 | 0.34 | 0.03 | 100 | 1008.1 |
| 20260507071757 | 62 | 207 | 0.0 | 0.0 | 0.01 | 0.34 | 0.03 | 100 | 1008.2 |
| 20260507071256 | 62 | 207 | 0.0 | 0.0 | 0.01 | 0.34 | 0.03 | 100 | 1008.2 |
| 20260507070756 | 62 | 207 | 0.0 | 0.0 | 0.01 | 0.34 | 0.03 | 100 | 1008.3 |
| 20260507070257 | 62 | 207 | 0.0 | 0.0 | 0.01 | 0.34 | 0.03 | 100 | 1008.1 |
| 20260507065757 | 62 | 207 | 0.0 | 0.0 | 0.02 | 0.34 | 0.03 | 100 | 1007.9 |
| 20260507065256 | 62 | 207 | 0.0 | 0.0 | 0.02 | 0.34 | 0.03 | 100 | 1008.1 |
| 20260507064756 | 61 | 207 | 0.0 | 0.0 | 0.02 | 0.34 | 0.03 | 100 | 1008.3 |
| 20260507063757 | 61 | 207 | 0.0 | 0.0 | 0.03 | 0.34 | 0.03 | 100 | 1008.1 |
| 20260507063257 | 62 | 207 | 0.0 | 0.0 | 0.02 | 0.33 | 0.02 | 100 | 1008.1 |
| 20260507062756 | 62 | 207 | 0.0 | 0.0 | 0.02 | 0.33 | 0.02 | 100 | 1008.1 |
| 20260507062257 | 62 | 207 | 0.0 | 0.0 | 0.02 | 0.33 | 0.02 | 100 | 1008.4 |
| 20260507061756 | 62 | 207 | 0.0 | 0.0 | 0.02 | 0.33 | 0.02 | 100 | 1008.1 |
| 20260507061257 | 62 | 207 | 0.0 | 0.0 | 0.02 | 0.33 | 0.02 | 100 | 1008.6 |
| 20260507060757 | 62 | 207 | 0.0 | 0.0 | 0.02 | 0.33 | 0.02 | 100 | 1008.6 |
| 20260507060256 | 62 | 207 | 0.0 | 0.0 | 0.02 | 0.33 | 0.02 | 100 | 1008.5 |
| 20260507055756 | 62 | 207 | 0.0 | 0.0 | 0.01 | 0.32 | 0.01 | 100 | 1008.6 |
| 20260507055256 | 62 | 207 | 0.0 | 0.0 | 0.01 | 0.32 | 0.01 | 100 | 1008.3 |
| 20260507054757 | 62 | 207 | 0.0 | 0.0 | 0.01 | 0.32 | 0.01 | 100 | 1008.1 |
| 20260507054257 | 62 | 207 | 0.0 | 0.0 | 0.00 | 0.31 | 0.00 | 100 | 1008.6 |
| 20260507053757 | 62 | 207 | 0.0 | 0.0 | 0.00 | 0.31 | 0.00 | 100 | 1008.6 |
| 20260507052757 | 62 | 207 | 0.0 | 0.0 | 0.00 | 0.31 | 0.00 | 100 | 1008.8 |
| 20260507052257 | 62 | 207 | 0.0 | 0.0 | 0.00 | 0.31 | 0.00 | 100 | 1008.7 |
| 20260507051757 | 62 | 207 | 0.0 | 0.0 | 0.00 | 0.31 | 0.00 | 100 | 1008.7 |
| 20260507051258 | 62 | 207 | 0.0 | 0.0 | 0.00 | 0.31 | 0.00 | 100 | 1008.7 |
| 20260507050756 | 62 | 207 | 0.0 | 0.0 | 0.00 | 0.31 | 0.00 | 100 | 1008.6 |
| 20260507050256 | 62 | 207 | 0.0 | 0.0 | 0.00 | 0.31 | 0.00 | 100 | 1008.7 |
| 20260507045757 | 62 | 207 | 0.0 | 0.0 | 0.00 | 0.31 | 0.00 | 100 | 1009.0 |
| 20260507045257 | 62 | 207 | 0.0 | 0.0 | 0.00 | 0.31 | 0.00 | 100 | 1009.0 |
| 20260507044757 | 62 | 207 | 0.0 | 0.0 | 0.00 | 0.31 | 0.00 | 100 | 1009.1 |
| 20260507044257 | 62 | 207 | 0.0 | 0.0 | 0.00 | 0.31 | 0.00 | 100 | 1009.2 |
| 20260507043756 | 62 | 207 | 0.0 | 0.0 | 0.01 | 0.31 | 0.00 | 100 | 1009.2 |
| 20260507043256 | 62 | 207 | 0.0 | 0.0 | 0.01 | 0.31 | 0.00 | 100 | 1009.1 |
| 20260507042756 | 62 | 207 | 0.0 | 0.0 | 0.01 | 0.31 | 0.00 | 100 | 1009.1 |
| 20260507041757 | 62 | 207 | 0.0 | 0.0 | 0.01 | 0.31 | 0.00 | 100 | 1009.6 |
| 20260507041257 | 62 | 207 | 0.0 | 0.0 | 0.01 | 0.31 | 0.00 | 100 | 1009.7 |
| 20260507040807 | 62 | 207 | 0.0 | 0.0 | 0.01 | 0.31 | 0.00 | 100 | 1009.3 |
| 20260507040257 | 62 | 207 | 0.0 | 0.0 | 0.01 | 0.31 | 0.00 | 100 | 1009.7 |
| 20260507035757 | 62 | 207 | 0.0 | 0.0 | 0.01 | 0.31 | 0.31 | 100 | 1009.8 |
| 20260507035257 | 62 | 207 | 0.0 | 0.0 | 0.01 | 0.31 | 0.31 | 100 | 1009.9 |
| 20260507034756 | 62 | 207 | 0.0 | 0.0 | 0.01 | 0.31 | 0.31 | 100 | 1010.1 |
| 20260507034256 | 62 | 207 | 0.0 | 0.0 | 0.01 | 0.31 | 0.31 | 100 | 1010.0 |
| 20260507033257 | 62 | 244 | 0.0 | 0.0 | 0.00 | 0.30 | 0.30 | 100 | 1010.3 |
| 20260507032757 | 62 | 244 | 0.0 | 0.0 | 0.00 | 0.30 | 0.30 | 100 | 1010.0 |
| 20260507031757 | 62 | 244 | 0.0 | 0.0 | 0.00 | 0.30 | 0.30 | 100 | 1010.2 |
| 20260507031257 | 62 | 244 | 0.0 | 0.0 | 0.00 | 0.30 | 0.30 | 100 | 1010.3 |
| 20260507030757 | 62 | 244 | 0.0 | 0.0 | 0.00 | 0.30 | 0.30 | 100 | 1010.2 |
| 20260507030257 | 62 | 244 | 0.0 | 0.0 | 0.00 | 0.30 | 0.30 | 100 | 1010.1 |
| 20260507025757 | 62 | 244 | 0.0 | 0.0 | 0.00 | 0.30 | 0.30 | 100 | 1009.9 |
| 20260507024757 | 62 | 97 | 0.0 | 0.0 | 0.00 | 0.30 | 0.30 | 99 | 1009.9 |
| 20260507024257 | 62 | 97 | 0.0 | 0.0 | 0.02 | 0.30 | 0.30 | 98 | 1009.6 |
| 20260507023758 | 62 | 97 | 0.0 | 0.0 | 0.03 | 0.30 | 0.30 | 98 | 1009.4 |
| 20260507023257 | 62 | 97 | 0.0 | 0.0 | 0.04 | 0.30 | 0.30 | 97 | 1009.2 |
| 20260507022758 | 62 | 97 | 0.0 | 0.0 | 0.04 | 0.30 | 0.30 | 97 | 1009.5 |
| 20260507022257 | 62 | 97 | 0.0 | 0.0 | 0.05 | 0.30 | 0.30 | 96 | 1009.6 |
| 20260507021757 | 62 | 97 | 0.0 | 0.0 | 0.07 | 0.30 | 0.30 | 96 | 1009.2 |
| 20260507021257 | 62 | 97 | 0.0 | 0.0 | 0.08 | 0.30 | 0.30 | 96 | 1009.0 |
| 20260507020757 | 62 | 97 | 0.0 | 0.0 | 0.09 | 0.30 | 0.30 | 96 | 1009.4 |
| 20260507020257 | 63 | 97 | 0.0 | 0.0 | 0.10 | 0.30 | 0.30 | 95 | 1009.5 |
| 20260507015758 | 63 | 97 | 0.0 | 0.0 | 0.11 | 0.30 | 0.30 | 95 | 1009.5 |
| 20260507015257 | 63 | 94 | 0.0 | 0.0 | 0.11 | 0.30 | 0.30 | 95 | 1009.5 |
| 20260507014757 | 63 | 94 | 0.0 | 0.0 | 0.12 | 0.30 | 0.30 | 95 | 1009.7 |
| 20260507014257 | 63 | 94 | 0.0 | 0.0 | 0.11 | 0.28 | 0.28 | 94 | 1009.1 |
| 20260507013757 | 63 | 233 | 0.0 | 7.0 | 0.11 | 0.27 | 0.27 | 94 | 1010.6 |
| 20260507013257 | 63 | 277 | 5.0 | 12.0 | 0.10 | 0.26 | 0.26 | 94 | 1011.2 |
| 20260507012257 | 63 | 243 | 0.0 | 6.0 | 0.09 | 0.25 | 0.25 | 94 | 1011.0 |
| 20260507011257 | 63 | 265 | 3.0 | 8.0 | 0.07 | 0.22 | 0.22 | 92 | 1010.9 |
| 20260507010757 | 63 | 271 | 3.0 | 7.0 | 0.06 | 0.21 | 0.21 | 92 | 1010.6 |
| 20260507010257 | 63 | 267 | 0.0 | 0.0 | 0.05 | 0.20 | 0.20 | 91 | 1010.2 |
| 20260507005757 | 64 | 300 | 0.0 | 3.0 | 0.04 | 0.19 | 0.19 | 90 | 1010.1 |
| 20260507005257 | 64 | 279 | 2.0 | 5.0 | 0.04 | 0.19 | 0.19 | 90 | 1009.6 |
| 20260507004756 | 64 | 279 | 2.0 | 5.0 | 0.03 | 0.18 | 0.18 | 89 | 1009.6 |
| 20260507004257 | 64 | 277 | 0.0 | 0.0 | 0.02 | 0.17 | 0.17 | 88 | 1009.4 |
| 20260507003757 | 64 | 258 | 3.0 | 5.0 | 0.01 | 0.16 | 0.16 | 87 | 1009.7 |
| 20260507003257 | 64 | 252 | 3.0 | 6.0 | 0.01 | 0.16 | 0.16 | 87 | 1009.7 |
| 20260507002757 | 64 | 268 | 5.0 | 8.0 | 0.01 | 0.16 | 0.16 | 87 | 1009.8 |
| 20260507002257 | 64 | 271 | 5.0 | 8.0 | 0.01 | 0.16 | 0.16 | 87 | 1009.7 |
| 20260507001757 | 64 | 252 | 0.0 | 0.0 | 0.01 | 0.15 | 0.15 | 87 | 1009.6 |
| 20260507001257 | 64 | 262 | 0.0 | 0.0 | 0.01 | 0.15 | 0.15 | 87 | 1009.3 |
| 20260507000258 | 64 | 265 | 1.0 | 6.0 | 0.01 | 0.15 | 0.15 | 87 | 1009.0 |
| 20260506235757 | 64 | 252 | 1.0 | 5.0 | 0.02 | 0.15 | 0.15 | 88 | 1009.0 |
| 20260506235257 | 64 | 264 | 0.0 | 0.0 | 0.03 | 0.15 | 0.15 | 87 | 1009.0 |
| 20260506234757 | 64 | 226 | 0.0 | 0.0 | 0.03 | 0.15 | 0.15 | 87 | 1009.1 |
| 20260506234257 | 64 | 283 | 1.0 | 6.0 | 0.03 | 0.15 | 0.15 | 86 | 1009.1 |
| 20260506233757 | 65 | 245 | 0.0 | 3.0 | 0.03 | 0.15 | 0.15 | 85 | 1009.3 |
| 20260506232757 | 65 | 252 | 1.0 | 7.0 | 0.03 | 0.15 | 0.15 | 84 | 1009.1 |
| 20260506232257 | 65 | 248 | 2.0 | 7.0 | 0.03 | 0.15 | 0.15 | 84 | 1009.2 |
| 20260506231758 | 65 | 261 | 3.0 | 7.0 | 0.02 | 0.14 | 0.14 | 83 | 1009.1 |
| 20260506231257 | 66 | 259 | 1.0 | 6.0 | 0.02 | 0.14 | 0.14 | 82 | 1009.1 |
| 20260506230757 | 66 | 256 | 4.0 | 9.0 | 0.02 | 0.14 | 0.14 | 81 | 1009.1 |
| 20260506225257 | 67 | 272 | 0.0 | 0.0 | 0.00 | 0.12 | 0.12 | 79 | 1008.8 |
| 20260506224757 | 68 | 267 | 0.0 | 0.0 | 0.00 | 0.12 | 0.12 | 78 | 1008.9 |
| 20260506223757 | 68 | 255 | 1.0 | 10.0 | 0.00 | 0.12 | 0.12 | 78 | 1008.4 |
| 20260506223257 | 68 | 257 | 0.0 | 10.0 | 0.00 | 0.12 | 0.12 | 81 | 1008.4 |
| 20260506222757 | 68 | 251 | 0.0 | 0.0 | 0.00 | 0.12 | 0.12 | 81 | 1008.6 |
| 20260506222257 | 68 | 261 | 1.0 | 8.0 | 0.00 | 0.12 | 0.12 | 81 | 1008.8 |
| 20260506221758 | 69 | 261 | 4.0 | 7.0 | 0.00 | 0.12 | 0.12 | 81 | 1008.7 |
| 20260506221258 | 69 | 261 | 4.0 | 9.0 | 0.00 | 0.12 | 0.12 | 81 | 1008.4 |
| 20260506220257 | 69 | 275 | 0.0 | 1.0 | 0.00 | 0.12 | 0.12 | 82 | 1008.4 |
| 20260506215257 | 69 | 255 | 1.0 | 7.0 | 0.00 | 0.12 | 0.12 | 83 | 1007.9 |
| 20260506213757 | 69 | 274 | 0.0 | 0.0 | 0.00 | 0.12 | 0.12 | 84 | 1008.0 |
| 20260506212257 | 70 | 276 | 0.0 | 7.0 | 0.00 | 0.12 | 0.12 | 81 | 1008.2 |
| 20260506211757 | 70 | 281 | 0.0 | 0.0 | 0.00 | 0.12 | 0.12 | 79 | 1008.3 |
| 20260506211257 | 70 | 286 | 0.0 | 7.0 | 0.00 | 0.12 | 0.12 | 78 | 1008.4 |
| 20260506210758 | 70 | 249 | 1.0 | 7.0 | 0.00 | 0.12 | 0.12 | 77 | 1008.7 |
| 20260506210258 | 70 | 240 | 5.0 | 8.0 | 0.00 | 0.12 | 0.12 | 77 | 1008.7 |
| 20260506205758 | 70 | 259 | 3.0 | 7.0 | 0.00 | 0.12 | 0.12 | 77 | 1008.6 |
| 20260506204757 | 71 | 263 | 8.0 | 12.0 | 0.00 | 0.12 | 0.12 | 75 | 1008.8 |
| 20260506203757 | 71 | 259 | 7.0 | 14.0 | 0.00 | 0.12 | 0.12 | 74 | 1008.9 |
| 20260506203257 | 71 | 261 | 9.0 | 16.0 | 0.00 | 0.12 | 0.12 | 73 | 1009.1 |
| 20260506202758 | 71 | 254 | 9.0 | 14.0 | 0.00 | 0.12 | 0.12 | 73 | 1008.8 |
| 20260506202258 | 72 | 261 | 7.0 | 13.0 | 0.00 | 0.12 | 0.12 | 73 | 1008.8 |
| 20260506201758 | 72 | 250 | 6.0 | 12.0 | 0.00 | 0.12 | 0.12 | 73 | 1008.8 |
| 20260506201258 | 72 | 277 | 6.0 | 15.0 | 0.00 | 0.12 | 0.12 | 72 | 1008.8 |
| 20260506200758 | 72 | 264 | 7.0 | 13.0 | 0.00 | 0.12 | 0.12 | 72 | 1008.8 |
| 20260506195757 | 72 | 268 | 6.0 | 12.0 | 0.00 | 0.12 | 0.12 | 72 | 1008.5 |
| 20260506195257 | 72 | 245 | 5.0 | 10.0 | 0.00 | 0.12 | 0.12 | 71 | 1008.5 |
| 20260506194758 | 72 | 245 | 5.0 | 12.0 | 0.00 | 0.12 | 0.12 | 71 | 1008.5 |
| 20260506194258 | 72 | 242 | 7.0 | 15.0 | 0.00 | 0.12 | 0.12 | 70 | 1008.8 |
| 20260506193257 | 72 | 273 | 12.0 | 20.0 | 0.00 | 0.12 | 0.12 | 69 | 1009.1 |
| 20260506192257 | 73 | 257 | 9.0 | 18.0 | 0.00 | 0.12 | 0.12 | 69 | 1009.0 |
| 20260506191757 | 73 | 265 | 14.0 | 20.0 | 0.00 | 0.12 | 0.12 | 67 | 1009.1 |
| 20260506191257 | 73 | 265 | 13.0 | 24.0 | 0.00 | 0.12 | 0.12 | 66 | 1009.3 |
| 20260506190757 | 73 | 275 | 16.0 | 23.0 | 0.00 | 0.12 | 0.12 | 64 | 1009.3 |
| 20260506190257 | 74 | 280 | 12.0 | 24.0 | 0.00 | 0.12 | 0.12 | 66 | 1009.1 |
| 20260506185258 | 74 | 265 | 10.0 | 18.0 | 0.00 | 0.12 | 0.12 | 64 | 1008.9 |
| 20260506184758 | 75 | 274 | 14.0 | 20.0 | 0.00 | 0.12 | 0.12 | 62 | 1008.8 |
| 20260506184257 | 75 | 277 | 7.0 | 17.0 | 0.00 | 0.12 | 0.12 | 64 | 1008.7 |
| 20260506183757 | 75 | 247 | 11.0 | 17.0 | 0.00 | 0.12 | 0.12 | 64 | 1008.6 |
| 20260506183257 | 74 | 289 | 9.0 | 16.0 | 0.00 | 0.12 | 0.12 | 63 | 1008.4 |
| 20260506182758 | 74 | 282 | 9.0 | 15.0 | 0.00 | 0.12 | 0.12 | 64 | 1008.3 |
| 20260506182258 | 74 | 287 | 7.0 | 14.0 | 0.00 | 0.12 | 0.12 | 66 | 1008.3 |
| 20260506181758 | 74 | 246 | 7.0 | 15.0 | 0.00 | 0.12 | 0.12 | 64 | 1008.3 |
| 20260506181258 | 74 | 271 | 9.0 | 16.0 | 0.00 | 0.12 | 0.12 | 63 | 1008.3 |
| 20260506180257 | 74 | 241 | 8.0 | 15.0 | 0.00 | 0.12 | 0.12 | 64 | 1008.4 |
| 20260506175757 | 74 | 266 | 5.0 | 10.0 | 0.00 | 0.12 | 0.12 | 67 | 1008.3 |
| 20260506175257 | 73 | 246 | 9.0 | 15.0 | 0.00 | 0.12 | 0.12 | 67 | 1008.3 |
| 20260506174757 | 73 | 263 | 6.0 | 13.0 | 0.00 | 0.12 | 0.12 | 69 | 1008.2 |
| 20260506174257 | 72 | 262 | 5.0 | 10.0 | 0.00 | 0.12 | 0.12 | 72 | 1008.3 |
| 20260506173757 | 72 | 271 | 6.0 | 10.0 | 0.00 | 0.12 | 0.12 | 72 | 1008.2 |
| 20260506173257 | 71 | 252 | 6.0 | 12.0 | 0.00 | 0.12 | 0.12 | 73 | 1008.2 |
| 20260506172757 | 71 | 265 | 3.0 | 12.0 | 0.00 | 0.12 | 0.12 | 76 | 1008.3 |
| 20260506172257 | 70 | 252 | 3.0 | 7.0 | 0.00 | 0.12 | 0.12 | 75 | 1008.3 |
| 20260506171757 | 70 | 229 | 5.0 | 8.0 | 0.00 | 0.12 | 0.12 | 77 | 1008.2 |
| 20260506171257 | 69 | 246 | 0.0 | 10.0 | 0.01 | 0.12 | 0.12 | 80 | 1008.3 |
| 20260506170758 | 68 | 260 | 4.0 | 10.0 | 0.01 | 0.12 | 0.12 | 79 | 1008.5 |
| 20260506165757 | 67 | 253 | 1.0 | 9.0 | 0.01 | 0.12 | 0.12 | 84 | 1008.7 |
| 20260506164757 | 66 | 264 | 3.0 | 10.0 | 0.02 | 0.12 | 0.12 | 87 | 1009.0 |
| 20260506164257 | 66 | 266 | 3.0 | 9.0 | 0.02 | 0.12 | 0.12 | 88 | 1009.3 |
| 20260506163757 | 66 | 259 | 0.0 | 8.0 | 0.03 | 0.12 | 0.12 | 89 | 1009.2 |
| 20260506163258 | 65 | 267 | 5.0 | 9.0 | 0.04 | 0.12 | 0.12 | 91 | 1009.4 |
| 20260506162758 | 65 | 270 | 3.0 | 9.0 | 0.05 | 0.12 | 0.12 | 91 | 1009.7 |
| 20260506161758 | 65 | 208 | 0.0 | 8.0 | 0.06 | 0.12 | 0.12 | 92 | 1010.0 |
| 20260506161257 | 65 | 241 | 0.0 | 0.0 | 0.06 | 0.11 | 0.11 | 92 | 1010.5 |
| 20260506160758 | 65 | 253 | 0.0 | 10.0 | 0.06 | 0.11 | 0.11 | 91 | 1010.6 |
| 20260506160258 | 65 | 250 | 1.0 | 10.0 | 0.06 | 0.11 | 0.11 | 91 | 1010.9 |
| 20260506155757 | 65 | 244 | 4.0 | 9.0 | 0.06 | 0.11 | 0.11 | 91 | 1010.9 |
| 20260506155258 | 65 | 252 | 5.0 | 10.0 | 0.05 | 0.10 | 0.10 | 91 | 1010.8 |
| 20260506154758 | 65 | 264 | 6.0 | 12.0 | 0.05 | 0.10 | 0.10 | 91 | 1010.9 |
| 20260506154258 | 65 | 250 | 6.0 | 12.0 | 0.05 | 0.10 | 0.10 | 91 | 1010.9 |
| 20260506153758 | 65 | 257 | 5.0 | 12.0 | 0.04 | 0.09 | 0.09 | 90 | 1010.9 |
| 20260506152757 | 65 | 279 | 5.0 | 15.0 | 0.02 | 0.07 | 0.07 | 88 | 1010.9 |
| 20260506152258 | 66 | 268 | 8.0 | 14.0 | 0.01 | 0.06 | 0.06 | 88 | 1011.0 |
| 20260506151758 | 66 | 256 | 7.0 | 13.0 | 0.01 | 0.06 | 0.06 | 88 | 1010.9 |
| 20260506151258 | 66 | 258 | 8.0 | 20.0 | 0.00 | 0.05 | 0.05 | 87 | 1010.8 |
| 20260506150758 | 66 | 245 | 10.0 | 16.0 | 0.01 | 0.05 | 0.05 | 86 | 1010.5 |
| 20260506150304 | 66 | 266 | 6.0 | 12.0 | 0.04 | 0.05 | 0.05 | 86 | 1010.4 |